Flight Track Log - Related Links

Times and Time Zones

All times are in EDT time to prevent confusion due to time zone crossing. See the N604DF flight status page for this flight to view local times or setup timezone preferences in your user account.

Time Position Orientation Groundspeed Altitude Reporting Facility
EDT Latitude Longitude Course Direction KTS MPH feet Rate Location/Type
Tue 01:41:47 PM 32.8070 -96.8120 135° Southeast 229 264 2,600  Level FlightAware ADS-B
Tue 01:42:17 PM 32.7880 -96.7810 126° Southeast 239 275 4,400 3,659 Climbing FlightAware ADS-B
Tue 01:42:28 PM 32.7860 -96.7670 100° East 246 283 5,100 3,450 Climbing FlightAware ADS-B
Tue 01:42:57 PM 32.7960 -96.7290 73° East 261 300 6,700 3,261 Climbing FlightAware ADS-B
Tue 01:43:14 PM 32.8050 -96.7070 64° Northeast 271 312 7,600 2,800 Climbing FlightAware ADS-B
Tue 01:43:42 PM 32.8220 -96.6680 63° Northeast 288 331 8,800 2,538 Climbing FlightAware ADS-B
Tue 01:44:06 PM 32.8370 -96.6340 62° Northeast 298 343 9,800 2,613 Climbing FlightAware ADS-B
Tue 01:44:44 PM 32.8620 -96.5770 62° Northeast 311 358 11,500 2,286 Climbing FlightAware ADS-B
Tue 01:45:30 PM 32.8940 -96.5050 62° Northeast 339 390 13,000 1,600 Climbing FlightAware ADS-B
Tue 01:46:14 PM 32.9280 -96.4280 62° Northeast 373 429 13,900 1,448 Climbing FlightAware ADS-B
Tue 01:46:57 PM 32.9630 -96.3460 63° Northeast 388 447 15,100 1,857 Climbing FlightAware ADS-B
Tue 01:47:38 PM 32.9790 -96.2620 77° East 391 450 16,500 2,025 Climbing FlightAware ADS-B
Tue 01:48:17 PM 32.9910 -96.1780 80° East 396 456 17,800 1,816 Climbing FlightAware ADS-B
Tue 01:48:54 PM 33.0020 -96.0980 81° East 403 464 18,800 1,610 Climbing FlightAware ADS-B
Tue 01:49:39 PM 33.0160 -95.9970 81° East 413 475 20,000 1,500 Climbing FlightAware ADS-B
Tue 01:50:30 PM 33.0320 -95.8840 80° East 419 482 21,200 1,224 Climbing FlightAware ADS-B
Tue 01:51:17 PM 33.0470 -95.7740 81° East 432 497 22,000 1,023 Climbing FlightAware ADS-B
Tue 01:51:58 PM 33.0600 -95.6770 81° East 441 507 22,700 963 Climbing FlightAware ADS-B
Tue 01:52:38 PM 33.0730 -95.5810 81° East 449 517 23,300 923 Climbing FlightAware ADS-B
Tue 01:53:16 PM 33.0970 -95.4900 73° East 454 522 23,900 1,256 Climbing FlightAware ADS-B
Tue 01:54:04 PM 33.1300 -95.3810 70° East 447 514 25,100 1,299 Climbing FlightAware ADS-B
Tue 01:54:53 PM 33.1652 -95.2635 70° East 448 516 26,000 1,071 Climbing FlightAware ADS-B
Tue 01:55:28 PM 33.1894 -95.1823 70° East 450 518 26,600 1,000 Climbing FlightAware ADS-B
Tue 01:56:05 PM 33.2153 -95.0954 70° East 451 519 27,200 795 Climbing FlightAware ADS-B
Tue 01:56:51 PM 33.2473 -94.9875 70° East 456 525 27,700 593 Climbing FlightAware ADS-B
Tue 01:57:26 PM 33.2725 -94.9026 70° East 460 529 28,000 506 Climbing FlightAware ADS-B
Tue 01:58:14 PM 33.3060 -94.7880 71° East 464 534 28,400 522 Climbing FlightAware ADS-B
Tue 01:58:58 PM 33.3380 -94.6820 70° East 468 539 28,800 525 Climbing FlightAware ADS-B
Tue 01:59:34 PM 33.3630 -94.5960 71° East 470 541 29,100 178 Climbing FlightAware ADS-B
Tue 02:00:39 PM 33.4040 -94.4610 70° East 470 541 29,100  Level FlightAware ADS-B
Tue 02:01:16 PM 33.4270 -94.3840 70° East 470 541 29,100  Level FlightAware ADS-B
Tue 02:02:04 PM 33.4570 -94.2840 70° East 470 541 29,100  Level FlightAware ADS-B
Tue 02:02:40 PM 33.4800 -94.2090 70° East 470 541 29,100  Level FlightAware ADS-B
Tue 02:03:28 PM 33.5100 -94.1090 70° East 470 541 29,100 1,220 Level FlightAware ADS-B
Tue 02:04:38 PM 33.5975 -93.8697 70° East 475 547 31,500 1,338 Climbing Fort Worth Center
Tue 02:05:38 PM 33.6539 -93.7228 65° Northeast 475 547 32,000 500 Climbing Fort Worth Center
Tue 02:06:38 PM 33.7117 -93.5681 66° East 475 547 32,500 500 Climbing Fort Worth Center
Tue 02:08:02 PM 33.7881 -93.3689 65° Northeast 467 537 33,200 458 Climbing Memphis Center
Tue 02:09:02 PM 33.8433 -93.2283 65° Northeast 467 537 33,600 450 Climbing Memphis Center
Tue 02:10:02 PM 33.8967 -93.0875 65° Northeast 462 532 34,100 500 Climbing Memphis Center
Tue 02:11:02 PM 33.9519 -92.9439 65° Northeast 457 526 34,600 450 Climbing Memphis Center
Tue 02:12:02 PM 34.0028 -92.8003 67° East 457 526 35,000 200 Climbing Memphis Center
Tue 02:13:02 PM 34.0578 -92.6564 65° Northeast 457 526 35,000  Level Memphis Center
Tue 02:14:02 PM 34.1083 -92.5097 67° East 457 526 35,000  Level Memphis Center
Tue 02:15:02 PM 34.1631 -92.3628 66° East 467 537 35,000  Level Memphis Center
Tue 02:16:02 PM 34.2172 -92.2183 66° East 467 537 35,000  Level Memphis Center
Tue 02:17:02 PM 34.2694 -92.0714 67° East 472 543 35,000  Level Memphis Center
Tue 02:18:02 PM 34.3236 -91.9264 66° East 472 543 35,000  Level Memphis Center
Tue 02:19:02 PM 34.3797 -91.7764 66° East 472 543 35,000  Level Memphis Center
Tue 02:20:02 PM 34.4269 -91.6489 66° East 466 536 35,000  Level Memphis Center
Tue 02:21:02 PM 34.4806 -91.5061 65° Northeast 460 529 35,000  Level Memphis Center
Tue 02:22:02 PM 34.5319 -91.3631 66° East 455 524 35,000  Level Memphis Center
Tue 02:23:02 PM 34.5808 -91.2172 68° East 455 524 35,000  Level Memphis Center
Tue 02:24:02 PM 34.6361 -91.0689 66° East 460 529 35,000  Level Memphis Center
Tue 02:25:02 PM 34.6933 -90.9103 66° East 460 529 35,000  Level Memphis Center
Tue 02:26:02 PM 34.7458 -90.7614 67° East 467 537 35,000  Level Memphis Center
Tue 02:27:02 PM 34.7964 -90.6175 67° East 467 537 35,000  Level Memphis Center
Tue 02:28:02 PM 34.8486 -90.4711 66° East 467 537 35,000  Level Memphis Center
Tue 02:29:02 PM 34.8989 -90.3242 67° East 462 532 35,000  Level Memphis Center
Tue 02:30:02 PM 34.9531 -90.1772 66° East 462 532 35,000  Level Memphis Center
Tue 02:31:02 PM 35.0047 -90.0300 67° East 462 532 35,000  Level Memphis Center
Tue 02:32:02 PM 35.0522 -89.8981 66° East 462 532 35,000  Level Memphis Center
Tue 02:33:02 PM 35.1058 -89.7481 66° East 468 539 35,000  Level Memphis Center
Tue 02:34:02 PM 35.1553 -89.6028 67° East 473 544 35,000  Level Memphis Center
Tue 02:35:02 PM 35.2106 -89.4422 67° East 468 539 35,000  Level Memphis Center
Tue 02:36:02 PM 35.2594 -89.2992 67° East 458 527 35,000  Level Memphis Center
Tue 02:37:02 PM 35.3103 -89.1586 66° East 458 527 35,000  Level Memphis Center
Tue 02:38:02 PM 35.3608 -89.0103 67° East 458 527 35,000  Level Memphis Center
Tue 02:39:02 PM 35.4072 -88.8694 68° East 453 521 35,000  Level Memphis Center
Tue 02:40:02 PM 35.4514 -88.7411 67° East 453 521 35,000  Level Memphis Center
Tue 02:41:02 PM 35.4997 -88.6000 67° East 453 521 35,000  Level Memphis Center
Tue 02:42:02 PM 35.5517 -88.4533 66° East 453 521 35,000  Level Memphis Center
Tue 02:47:30 PM 35.8200 -87.6530 66° East 456 525 35,000  Level FlightAware ADS-B
Tue 02:48:11 PM 35.8540 -87.5520 67° East 456 525 35,000  Level FlightAware ADS-B
Tue 02:48:59 PM 35.8920 -87.4360 68° East 455 524 35,000  Level FlightAware ADS-B
Tue 02:49:39 PM 35.9230 -87.3420 68° East 456 525 35,000  Level FlightAware ADS-B
Tue 02:50:19 PM 35.9550 -87.2440 68° East 456 525 35,000  Level FlightAware ADS-B
Tue 02:50:55 PM 35.9840 -87.1570 68° East 456 525 35,000  Level FlightAware ADS-B
Tue 02:51:39 PM 36.0180 -87.0520 68° East 456 525 35,000  Level FlightAware ADS-B
Tue 02:52:15 PM 36.0470 -86.9630 68° East 456 525 35,000  Level FlightAware ADS-B
Tue 02:52:55 PM 36.0770 -86.8690 68° East 456 525 35,000  Level FlightAware ADS-B
Tue 02:53:39 PM 36.1120 -86.7610 68° East 457 526 35,000  Level FlightAware ADS-B
Tue 02:54:19 PM 36.1530 -86.6710 61° Northeast 460 529 35,000  Level FlightAware ADS-B
Tue 02:54:39 PM 36.1750 -86.6247 60° Northeast 460 529 35,000  Level FlightAware ADS-B
Tue 02:55:43 PM 36.2450 -86.4780 59° Northeast 461 531 35,000  Level FlightAware ADS-B
Tue 02:55:59 PM 36.2617 -86.4440 59° Northeast 461 531 35,000  Level FlightAware ADS-B
Tue 02:56:29 PM 36.2940 -86.3760 59° Northeast 460 529 35,000  Level FlightAware ADS-B
Tue 02:57:15 PM 36.3441 -86.2715 59° Northeast 461 531 35,000  Level FlightAware ADS-B
Tue 02:57:48 PM 36.3801 -86.1959 59° Northeast 462 532 35,000  Level FlightAware ADS-B
Tue 02:58:29 PM 36.4249 -86.1017 59° Northeast 462 532 35,000  Level FlightAware ADS-B
Tue 02:59:00 PM 36.4579 -86.0319 60° Northeast 462 532 35,000  Level FlightAware ADS-B
Tue 02:59:49 PM 36.5110 -85.9200 59° Northeast 461 531 35,000  Level FlightAware ADS-B
Tue 03:00:32 PM 36.5570 -85.8230 59° Northeast 461 531 35,000  Level FlightAware ADS-B
Tue 03:01:22 PM 36.6109 -85.7069 60° Northeast 463 533 35,000  Level FlightAware ADS-B
Tue 03:01:53 PM 36.6443 -85.6356 60° Northeast 463 533 35,000  Level FlightAware ADS-B
Tue 03:02:24 PM 36.6774 -85.5647 60° Northeast 464 534 35,000  Level FlightAware ADS-B
Tue 03:03:03 PM 36.7191 -85.4755 60° Northeast 462 532 35,000  Level FlightAware ADS-B
Tue 03:03:33 PM 36.7522 -85.4042 60° Northeast 462 532 35,000  Level FlightAware ADS-B
Tue 03:04:19 PM 36.8013 -85.2984 60° Northeast 461 531 35,000  Level FlightAware ADS-B
Tue 03:04:55 PM 36.8330 -85.2300 60° Northeast 461 531 35,000  Level FlightAware ADS-B
Tue 03:05:22 PM 36.8678 -85.1545 60° Northeast 460 529 35,000  Level FlightAware ADS-B
Tue 03:05:59 PM 36.9072 -85.0690 60° Northeast 460 529 35,000  Level FlightAware ADS-B
Tue 03:06:31 PM 36.9402 -84.9972 60° Northeast 460 529 35,000  Level FlightAware ADS-B
Tue 03:07:03 PM 36.9745 -84.9221 60° Northeast 460 529 35,000  Level FlightAware ADS-B
Tue 03:07:33 PM 37.0066 -84.8520 60° Northeast 460 529 35,000  Level FlightAware ADS-B
Tue 03:08:04 PM 37.0382 -84.7828 60° Northeast 460 529 35,000  Level FlightAware ADS-B
Tue 03:08:36 PM 37.0725 -84.7075 60° Northeast 460 529 35,000  Level FlightAware ADS-B
Tue 03:09:16 PM 37.1140 -84.6159 60° Northeast 460 529 35,000  Level FlightAware ADS-B
Tue 03:10:27 PM 37.1890 -84.4503 60° Northeast 460 529 35,000  Level FlightAware ADS-B
Tue 03:11:02 PM 37.2255 -84.3693 60° Northeast 459 528 35,000  Level FlightAware ADS-B
Tue 03:11:36 PM 37.2609 -84.2906 61° Northeast 458 527 35,000  Level FlightAware ADS-B
Tue 03:12:19 PM 37.3051 -84.1920 61° Northeast 458 527 35,000  Level FlightAware ADS-B
Tue 03:12:50 PM 37.3367 -84.1214 61° Northeast 456 525 35,000  Level FlightAware ADS-B
Tue 03:13:20 PM 37.3679 -84.0513 61° Northeast 455 524 35,000  Level FlightAware ADS-B
Tue 03:13:54 PM 37.4029 -83.9727 61° Northeast 454 522 35,000  Level FlightAware ADS-B
Tue 03:14:44 PM 37.4538 -83.8580 61° Northeast 453 521 35,000  Level FlightAware ADS-B
Tue 03:15:17 PM 37.4877 -83.7817 61° Northeast 454 522 35,000  Level FlightAware ADS-B
Tue 03:15:49 PM 37.5196 -83.7095 61° Northeast 453 521 35,000  Level FlightAware ADS-B
Tue 03:16:20 PM 37.5515 -83.6371 61° Northeast 453 521 35,000  Level FlightAware ADS-B
Tue 03:16:51 PM 37.5833 -83.5648 61° Northeast 453 521 35,000  Level FlightAware ADS-B
Tue 03:17:37 PM 37.6296 -83.4590 61° Northeast 453 521 35,000  Level FlightAware ADS-B
Tue 03:18:12 PM 37.6654 -83.3772 61° Northeast 453 521 35,000  Level FlightAware ADS-B
Tue 03:18:43 PM 37.6959 -83.3075 61° Northeast 452 520 35,000  Level FlightAware ADS-B
Tue 03:19:15 PM 37.7281 -83.2334 61° Northeast 452 520 35,000  Level FlightAware ADS-B
Tue 03:19:48 PM 37.7616 -83.1562 61° Northeast 452 520 35,000  Level FlightAware ADS-B
Tue 03:20:19 PM 37.7920 -83.0858 61° Northeast 452 520 35,000  Level FlightAware ADS-B
Tue 03:20:52 PM 37.8256 -83.0081 61° Northeast 452 520 35,000  Level FlightAware ADS-B
Tue 03:21:25 PM 37.8580 -82.9340 61° Northeast 451 519 35,000  Level FlightAware ADS-B
Tue 03:22:07 PM 37.9005 -82.8341 62° Northeast 452 520 35,000  Level FlightAware ADS-B
Tue 03:22:42 PM 37.9345 -82.7549 61° Northeast 451 519 35,000  Level FlightAware ADS-B
Tue 03:23:14 PM 37.9669 -82.6789 62° Northeast 450 518 35,000  Level FlightAware ADS-B
Tue 03:23:46 PM 37.9986 -82.6048 61° Northeast 450 518 35,000  Level FlightAware ADS-B
Tue 03:24:10 PM 38.0184 -82.5476 66° East 448 516 35,000  Level FlightAware ADS-B
Tue 03:24:36 PM 38.0303 -82.4827 77° East 449 517 35,000  Level FlightAware ADS-B
Tue 03:25:11 PM 38.0438 -82.3909 79° East 449 517 35,000  Level FlightAware ADS-B
Tue 03:25:46 PM 38.0567 -82.3003 80° East 449 517 35,000  Level FlightAware ADS-B
Tue 03:26:18 PM 38.0680 -82.2220 80° East 449 517 35,000  Level FlightAware ADS-B
Tue 03:26:32 PM 38.0736 -82.1808 80° East 449 517 35,000  Level FlightAware ADS-B
Tue 03:27:03 PM 38.0848 -82.1016 80° East 450 518 35,000  Level FlightAware ADS-B
Tue 03:27:36 PM 38.0966 -82.0170 80° East 451 519 35,000  Level FlightAware ADS-B
Tue 03:28:07 PM 38.1081 -81.9343 80° East 452 520 35,000  Level FlightAware ADS-B
Tue 03:28:54 PM 38.1250 -81.8124 80° East 452 520 35,000  Level FlightAware ADS-B
Tue 03:29:35 PM 38.1400 -81.7060 80° East 452 520 35,000  Level FlightAware ADS-B
Tue 03:30:09 PM 38.1510 -81.6200 81° East 453 521 35,000 -565 Level FlightAware ADS-B
Tue 03:31:00 PM 38.1700 -81.4820 80° East 465 535 34,200 -918 Descending FlightAware ADS-B
Tue 03:31:34 PM 38.1820 -81.3930 80° East 466 536 33,700 -645 Descending FlightAware ADS-B
Tue 03:32:33 PM 38.2020 -81.2460 80° East 467 537 33,200 -472 Descending FlightAware ADS-B
Tue 03:33:03 PM 38.2140 -81.1510 81° East 455 524 33,000 -158 Descending FlightAware ADS-B
Tue 03:33:49 PM 38.2300 -81.0330 80° East 450 518 33,000  Level FlightAware ADS-B
Tue 03:34:28 PM 38.2420 -80.9340 81° East 448 516 33,000  Level FlightAware ADS-B
Tue 03:35:10 PM 38.2570 -80.8220 80° East 449 517 33,000  Level FlightAware ADS-B
Tue 03:35:54 PM 38.2720 -80.7060 81° East 451 519 33,000  Level FlightAware ADS-B
Tue 03:36:36 PM 38.2860 -80.5950 81° East 452 520 33,000  Level FlightAware ADS-B
Tue 03:37:17 PM 38.2990 -80.4960 80° East 453 521 33,000  Level FlightAware ADS-B
Tue 03:38:00 PM 38.3160 -80.3770 80° East 454 522 33,000 -78 Level FlightAware ADS-B
Tue 03:38:34 PM 38.3280 -80.2850 81° East 456 525 32,900 -800 Descending FlightAware ADS-B
Tue 03:39:15 PM 38.3410 -80.1780 81° East 471 542 32,000 -1,624 Descending FlightAware ADS-B
Tue 03:39:59 PM 38.3560 -80.0560 81° East 472 543 30,600 -1,880 Descending FlightAware ADS-B
Tue 03:40:38 PM 38.3690 -79.9480 81° East 470 541 29,400 -1,875 Descending FlightAware ADS-B
Tue 03:41:19 PM 38.3800 -79.8380 83° East 465 535 28,100 -1,800 Descending FlightAware ADS-B
Tue 03:41:58 PM 38.3900 -79.7330 83° East 450 518 27,000 -1,714 Descending FlightAware ADS-B
Tue 03:42:36 PM 38.3990 -79.6340 83° East 437 503 25,900 -857 Descending FlightAware ADS-B
Tue 03:43:15 PM 38.4120 -79.5500 79° East 437 503 25,900 -1,636 Level FlightAware ADS-B
Tue 03:43:42 PM 38.4490 -79.4860 54° Northeast 416 479 24,100 -1,629 Descending FlightAware ADS-B
Tue 03:44:25 PM 38.5070 -79.4110 45° Northeast 385 443 24,000 -53 Descending FlightAware ADS-B
Tue 03:45:35 PM 38.5500 -79.2860 66° East 379 436 24,000  Level FlightAware ADS-B
Tue 03:46:11 PM 38.5700 -79.2230 68° East 379 436 24,000 -1,373 Level FlightAware ADS-B
Tue 03:46:58 PM 38.5810 -79.0810 84° East 387 445 22,100 -2,000 Descending FlightAware ADS-B
Tue 03:47:38 PM 38.5960 -78.9970 77° East 367 422 21,100 -1,231 Descending FlightAware ADS-B
Tue 03:48:16 PM 38.6090 -78.9180 78° East 362 417 20,500 -717 Descending FlightAware ADS-B
Tue 03:49:10 PM 38.6310 -78.8010 76° East 361 415 20,000 -306 Descending FlightAware ADS-B
Tue 03:49:54 PM 38.6520 -78.7120 73° East 358 412 20,000 -692 Level FlightAware ADS-B
Tue 03:50:28 PM 38.6610 -78.6750 73° East 360 414 19,100 -2,899 Descending FlightAware ADS-B
Tue 03:51:23 PM 38.6940 -78.5340 73° East 352 405 15,700 -3,714 Descending FlightAware ADS-B
Tue 03:52:13 PM 38.7170 -78.4380 73° East 332 382 12,600 -3,480 Descending FlightAware ADS-B
Tue 03:53:03 PM 38.7480 -78.3540 65° Northeast 301 346 9,900 -2,260 Descending FlightAware ADS-B
Tue 03:53:30 PM 38.7740 -78.3180 47° Northeast 283 326 9,700 -109 Descending FlightAware ADS-B
Tue 03:53:58 PM 38.8000 -78.2820 47° Northeast 283 326 9,800  Climbing FlightAware ADS-B
Tue 03:54:28 PM 38.8260 -78.2460 47° Northeast 290 334 9,700  Descending FlightAware ADS-B
Tue 03:54:56 PM 38.8500 -78.2080 51° Northeast 290 334 9,800  Climbing FlightAware ADS-B
Tue 03:55:16 PM 38.8610 -78.1780 65° Northeast 292 336 9,700 -136 Descending FlightAware ADS-B
Tue 03:55:40 PM 38.8710 -78.1390 72° East 288 331 9,700 -286 Level FlightAware ADS-B
Tue 03:55:58 PM 38.8790 -78.1090 71° East 290 334 9,500 -1,435 Descending FlightAware ADS-B
Tue 03:56:26 PM 38.8900 -78.0650 72° East 292 336 8,600 -1,855 Descending FlightAware ADS-B
Tue 03:56:53 PM 38.9000 -78.0230 73° East 289 333 7,800 -2,000 Descending FlightAware ADS-B
Tue 03:56:59 PM 38.9040 -78.0090 70° East 287 330 7,500 -2,250 Descending FlightAware ADS-B
Tue 03:57:33 PM 38.9170 -77.9540 73° East 284 327 6,300 -1,459 Descending FlightAware ADS-B
Tue 03:58:13 PM 38.9320 -77.8940 72° East 256 295 5,700 -429 Descending FlightAware ADS-B
Tue 03:58:43 PM 38.9440 -77.8480 71° East 260 299 5,800 109 Climbing FlightAware ADS-B
Tue 03:59:08 PM 38.9520 -77.8150 73° East 265 305 5,800  Level FlightAware ADS-B
Tue 03:59:24 PM 38.9580 -77.7910 72° East 265 305 5,800  Level FlightAware ADS-B
Tue 03:59:53 PM 38.9630 -77.7450 82° East 272 313 5,800  Level FlightAware ADS-B
Tue 04:00:28 PM 38.9580 -77.6890 97° East 272 313 5,800  Level FlightAware ADS-B
Tue 04:00:53 PM 38.9520 -77.6450 100° East 268 308 5,800  Level FlightAware ADS-B
Tue 04:01:13 PM 38.9370 -77.6210 129° Southeast 261 300 5,800  Level FlightAware ADS-B
Tue 04:01:38 PM 38.9110 -77.6030 152° Southeast 250 288 5,800  Level FlightAware ADS-B
Tue 04:02:03 PM 38.8860 -77.5900 158° South 252 290 5,800  Level FlightAware ADS-B
Tue 04:02:26 PM 38.8620 -77.5790 160° South 253 291 5,800 -316 Level FlightAware ADS-B
Tue 04:02:41 PM 38.8420 -77.5750 171° South 250 288 5,600 -933 Descending FlightAware ADS-B
Tue 04:03:11 PM 38.8070 -77.5760 181° South 248 285 5,100 -982 Descending FlightAware ADS-B
Tue 04:03:36 PM 38.7830 -77.5690 167° South 247 284 4,700 -1,038 Descending FlightAware ADS-B
Tue 04:04:03 PM 38.7710 -77.5300 112° Southeast 240 276 4,200 -1,053 Descending FlightAware ADS-B
Tue 04:04:33 PM 38.7720 -77.4890 88° East 229 264 3,700 -900 Descending FlightAware ADS-B
Tue 04:04:43 PM 38.7790 -77.4790 48° Northeast 222 255 3,600 -1,000 Descending FlightAware ADS-B
Tue 04:05:03 PM 38.7970 -77.4650 31° Northeast 219 252 3,200 -1,400 Descending FlightAware ADS-B
Tue 04:05:13 PM 38.8070 -77.4630 North 219 252 2,900 -1,680 Descending FlightAware ADS-B
Tue 04:05:28 PM 38.8190 -77.4610 North 215 247 2,500 -1,600 Descending FlightAware ADS-B
Tue 04:05:43 PM 38.8340 -77.4610 360° North 200 230 2,100 -1,200 Descending FlightAware ADS-B
Tue 04:06:13 PM 38.8590 -77.4610 360° North 168 193 1,600 -930 Descending FlightAware ADS-B
Tue 04:06:54 PM 38.8840 -77.4610 360° North 161 185 1,000 -537 Descending FlightAware ADS-B
Tue 04:07:20 PM 38.9000 -77.4600 North 161 185 1,000  Level FlightAware ADS-B
Tue 04:14:00 PM 38.9333 -77.4500 159° South  Level FlightAware Approximate
Tue 04:15:00 PM 38.9474 -77.4599 159° South  Level Estimated
Tue 04:16:00 PM 38.9474 -77.4599 159° South  Level Estimated
Tue 04:17:00 PM 38.9474 -77.4599 159° South  Level Estimated

Login

Don't have an account? Register now (free) for customized features, flight alerts, and more!